Terminal Aerodrome Forecast
Issued by NWS Bismarck, ND

Home | Current Version | Previous Version | Graphics & Text | Print | Product List | Glossary On
Versions: 1 2 3 4 5 6 7 8 9 10 11 12 13 14 15 16 17 18
000
FTUS43 KBIS 301357 AAA
TAFISN
TAF AMD
KISN 301357Z 3014/3112 00000KT 6SM FU BKN250
     FM301600 20007KT P6SM BKN250
     FM301800 32010KT P6SM BKN250
     FM310000 34008KT P6SM VCSH SCT080 BKN150 BKN250
     FM310900 30012KT P6SM BKN080 OVC150=

USA.gov is the U.S. government's official web portal to all federal, state and local government web resources and services.